Time;durP1;ratioP1;P1;durP2;ratioP2;P2;SDS_P1;SDS_P2;PMS_P1;PMS_P2;Temp;Humidity;BMP_temperature;BMP_pressure;BME280_temperature;BME280_humidity;BME280_pressure;Samples;Min_cycle;Max_cycle;Signal;HPM_P1;HPM_P2
2021/05/20 00:02:15;;;;;;;15.50;7.63;;;11.90;97.40;;;;;;4974150;28;20033;-74
2021/05/20 00:04:42;;;;;;;16.17;7.78;;;11.90;97.40;;;;;;4972328;28;20035;-75
2021/05/20 00:07:08;;;;;;;14.43;8.20;;;11.90;97.40;;;;;;4973991;28;20030;-74
2021/05/20 00:09:34;;;;;;;14.30;7.47;;;11.90;97.50;;;;;;4973336;28;20479;-75
2021/05/20 00:12:00;;;;;;;17.10;8.40;;;11.80;97.50;;;;;;4956596;28;20106;-74
2021/05/20 00:14:27;;;;;;;20.85;8.95;;;11.90;97.50;;;;;;4973359;28;20482;-75
2021/05/20 00:16:54;;;;;;;17.33;8.45;;;11.80;97.50;;;;;;4973764;28;20031;-74
2021/05/20 00:19:20;;;;;;;19.98;9.93;;;11.90;97.50;;;;;;4955809;28;20026;-75
2021/05/20 00:21:46;;;;;;;22.38;11.02;;;11.90;97.50;;;;;;4974086;28;20030;-75
2021/05/20 00:24:12;;;;;;;20.00;9.68;;;11.90;97.50;;;;;;4973567;28;20399;-73
2021/05/20 00:26:38;;;;;;;19.65;10.32;;;11.80;97.40;;;;;;4973074;28;20241;-73
2021/05/20 00:29:04;;;;;;;21.30;10.77;;;11.80;97.50;;;;;;4972361;28;20411;-74
2021/05/20 00:31:30;;;;;;;19.38;9.63;;;11.90;97.50;;;;;;4971645;28;20080;-74
2021/05/20 00:33:55;;;;;;;23.92;11.10;;;11.90;97.50;;;;;;4973898;28;20474;-73
2021/05/20 00:36:21;;;;;;;30.10;12.77;;;11.80;97.50;;;;;;4972641;28;20050;-75
2021/05/20 00:38:46;;;;;;;26.70;11.48;;;11.90;97.50;;;;;;4972808;28;20042;-74
2021/05/20 00:41:12;;;;;;;24.25;10.80;;;11.80;97.50;;;;;;4973229;28;20029;-74
2021/05/20 00:43:40;;;;;;;34.83;13.57;;;11.80;97.40;;;;;;4972814;28;20459;-74
2021/05/20 00:46:07;;;;;;;33.78;14.10;;;11.90;97.50;;;;;;4973527;28;20027;-74
2021/05/20 00:48:33;;;;;;;31.63;13.20;;;11.80;97.40;;;;;;4972786;28;20102;-75
2021/05/20 00:50:58;;;;;;;33.85;13.88;;;11.80;97.40;;;;;;4968007;28;20138;-74
2021/05/20 00:53:24;;;;;;;35.30;14.75;;;11.80;97.40;;;;;;4953337;29;20523;-75
2021/05/20 00:55:51;;;;;;;38.03;16.30;;;11.70;97.50;;;;;;4953663;29;20399;-75
2021/05/20 00:58:17;;;;;;;41.47;16.08;;;11.70;97.50;;;;;;4936653;29;20090;-74
2021/05/20 01:00:43;;;;;;;37.60;16.60;;;11.70;97.50;;;;;;4953340;29;20031;-74
2021/05/20 01:03:09;;;;;;;33.33;15.95;;;11.60;97.60;;;;;;4936663;29;20027;-74
2021/05/20 01:05:35;;;;;;;37.45;16.00;;;11.70;97.60;;;;;;4953336;29;20030;-74
2021/05/20 01:08:00;;;;;;;39.88;16.75;;;11.70;97.60;;;;;;4953916;29;20027;-74
2021/05/20 01:10:26;;;;;;;36.15;15.70;;;11.70;97.60;;;;;;4953472;29;20130;-73
2021/05/20 01:12:52;;;;;;;42.17;17.67;;;11.70;97.60;;;;;;4954074;29;20444;-74
2021/05/20 01:15:23;;;;;;;41.38;17.52;;;11.70;97.60;;;;;;4936589;29;20149;-74
2021/05/20 01:17:54;;;;;;;41.42;18.48;;;11.70;97.60;;;;;;4953786;29;20119;-74
2021/05/20 01:20:24;;;;;;;40.92;18.00;;;11.70;97.60;;;;;;4936657;29;20061;-74
2021/05/20 01:22:51;;;;;;;45.28;20.73;;;11.70;97.60;;;;;;4953791;29;20071;-75
2021/05/20 01:25:16;;;;;;;46.95;20.50;;;11.60;97.60;;;;;;4936463;29;20037;-75
2021/05/20 01:27:44;;;;;;;48.67;21.58;;;11.60;97.60;;;;;;4953182;29;20035;-75
2021/05/20 01:30:11;;;;;;;40.28;17.80;;;11.70;97.60;;;;;;4953807;29;20027;-75
2021/05/20 01:32:37;;;;;;;44.97;20.60;;;11.60;97.50;;;;;;4935831;29;20020;-75
2021/05/20 01:35:04;;;;;;;49.40;20.98;;;11.60;97.50;;;;;;4953556;29;20482;-74
2021/05/20 01:37:30;;;;;;;44.65;19.38;;;11.60;97.50;;;;;;4935717;29;20035;-74
2021/05/20 01:39:56;;;;;;;46.08;20.58;;;11.60;97.40;;;;;;4953603;29;20028;-74
2021/05/20 01:42:22;;;;;;;48.38;21.40;;;11.60;97.40;;;;;;4953547;29;20027;-74
2021/05/20 01:44:47;;;;;;;47.42;22.80;;;11.60;97.50;;;;;;4952732;29;20038;-74
2021/05/20 01:47:13;;;;;;;46.97;19.92;;;11.60;97.50;;;;;;4953729;29;20031;-73
2021/05/20 01:49:39;;;;;;;46.58;20.83;;;11.60;97.50;;;;;;4955619;28;20030;-75
2021/05/20 01:52:04;;;;;;;52.33;23.55;;;11.60;97.50;;;;;;4956836;29;20399;-75
2021/05/20 01:54:30;;;;;;;56.47;23.85;;;11.60;97.50;;;;;;4956830;29;20135;-75
2021/05/20 01:56:56;;;;;;;52.50;22.25;;;11.60;97.50;;;;;;4956990;29;20114;-74
2021/05/20 01:59:21;;;;;;;58.45;22.58;;;11.60;97.50;;;;;;4956900;29;20027;-75
2021/05/20 02:01:47;;;;;;;61.83;25.23;;;11.60;97.50;;;;;;4939117;29;20035;-74
2021/05/20 02:04:13;;;;;;;50.00;21.48;;;11.60;97.50;;;;;;4956787;29;20420;-74
2021/05/20 02:06:38;;;;;;;55.72;23.00;;;11.50;97.70;;;;;;4956383;29;20459;-74
2021/05/20 02:09:05;;;;;;;57.95;23.83;;;11.50;97.50;;;;;;4939788;29;20118;-74
2021/05/20 02:11:31;;;;;;;60.63;23.70;;;11.40;97.40;;;;;;4956265;29;20046;-75
2021/05/20 02:13:57;;;;;;;54.60;23.25;;;11.50;97.50;;;;;;4939554;29;20019;-73
2021/05/20 02:16:23;;;;;;;51.95;21.23;;;11.40;97.40;;;;;;4956796;29;20427;-74
2021/05/20 02:18:48;;;;;;;50.45;22.23;;;11.50;97.50;;;;;;4938760;29;20059;-74
2021/05/20 02:21:14;;;;;;;53.10;23.13;;;11.50;97.40;;;;;;4939534;29;20038;-74
2021/05/20 02:23:39;;;;;;;64.63;25.40;;;11.40;97.40;;;;;;4955975;29;20464;-75
2021/05/20 02:26:05;;;;;;;57.78;22.83;;;11.40;97.40;;;;;;4956560;29;20027;-75
2021/05/20 02:28:32;;;;;;;61.88;25.10;;;11.40;97.40;;;;;;4938639;29;20079;-74
2021/05/20 02:30:57;;;;;;;58.17;23.67;;;11.40;97.50;;;;;;4939214;29;20061;-75
2021/05/20 02:33:23;;;;;;;67.50;24.38;;;11.40;97.40;;;;;;4955207;29;20146;-75
2021/05/20 02:35:49;;;;;;;65.57;24.05;;;11.40;97.50;;;;;;4954538;29;20488;-75
2021/05/20 02:38:15;;;;;;;71.35;23.85;;;11.40;97.50;;;;;;4956432;29;20527;-75
2021/05/20 02:40:40;;;;;;;64.45;25.13;;;11.40;97.50;;;;;;4955732;29;20027;-74
2021/05/20 02:43:06;;;;;;;71.15;24.33;;;11.40;97.50;;;;;;4956337;29;20023;-74
2021/05/20 02:45:33;;;;;;;74.47;25.75;;;11.40;97.50;;;;;;4955369;29;20035;-75
2021/05/20 02:47:59;;;;;;;56.45;22.90;;;11.40;97.40;;;;;;4956124;29;20035;-74
2021/05/20 02:50:26;;;;;;;64.60;25.05;;;11.50;97.50;;;;;;4955551;29;20110;-73
2021/05/20 02:52:52;;;;;;;73.75;24.48;;;11.50;97.40;;;;;;4954710;29;20058;-73
2021/05/20 02:55:19;;;;;;;76.20;25.40;;;11.50;97.40;;;;;;4938648;29;20031;-73
2021/05/20 02:57:48;;;;;;;65.80;24.05;;;11.50;97.30;;;;;;4938058;29;20121;-75
2021/05/20 03:00:15;;;;;;;64.07;23.48;;;11.50;97.30;;;;;;4954989;28;20024;-74
2021/05/20 03:02:41;;;;;;;62.72;22.15;;;11.50;97.30;;;;;;4955340;29;20023;-74
2021/05/20 03:05:09;;;;;;;58.63;22.00;;;11.50;97.30;;;;;;4956184;29;20027;-75
2021/05/20 03:07:35;;;;;;;59.53;19.70;;;11.50;97.30;;;;;;4938112;29;20058;-76
2021/05/20 03:10:06;;;;;;;78.68;22.02;;;11.50;97.20;;;;;;4938530;29;20062;-72
2021/05/20 03:12:31;;;;;;;56.42;19.33;;;11.60;97.20;;;;;;4955135;29;20026;-75
2021/05/20 03:14:57;;;;;;;54.08;18.65;;;11.60;97.20;;;;;;4955691;29;20412;-73
2021/05/20 03:17:23;;;;;;;61.50;19.83;;;11.60;97.10;;;;;;4955504;29;20478;-75
2021/05/20 03:19:49;;;;;;;56.25;19.42;;;11.50;97.10;;;;;;4954692;29;20522;-75
2021/05/20 03:22:15;;;;;;;52.53;18.73;;;11.50;97.20;;;;;;4955567;29;20054;-74
2021/05/20 03:24:41;;;;;;;51.45;18.63;;;11.50;97.20;;;;;;4937689;29;20023;-75
2021/05/20 03:27:06;;;;;;;58.92;18.85;;;11.50;97.20;;;;;;4955209;29;20067;-74
2021/05/20 03:29:32;;;;;;;56.78;18.52;;;11.50;97.20;;;;;;4953847;29;20020;-73
2021/05/20 03:31:57;;;;;;;50.95;18.02;;;11.50;97.20;;;;;;4955063;29;20531;-74
2021/05/20 03:34:23;;;;;;;53.70;17.90;;;11.50;97.10;;;;;;4955059;29;20106;-74
2021/05/20 03:36:49;;;;;;;48.58;18.17;;;11.50;97.10;;;;;;4954598;29;20028;-74
2021/05/20 03:39:14;;;;;;;49.33;17.00;;;11.50;97.10;;;;;;4954962;29;20023;-73
2021/05/20 03:41:40;;;;;;;58.20;19.02;;;11.50;97.20;;;;;;4937102;29;20467;-74
2021/05/20 03:44:06;;;;;;;50.08;17.92;;;11.40;97.10;;;;;;4955157;29;20023;-74
2021/05/20 03:46:32;;;;;;;45.58;16.92;;;11.40;97.20;;;;;;4953996;29;20019;-74
2021/05/20 03:48:58;;;;;;;54.00;18.83;;;11.40;97.30;;;;;;4959691;28;20098;-75
2021/05/20 03:51:24;;;;;;;52.92;18.23;;;11.40;97.30;;;;;;4954831;28;20047;-74
2021/05/20 03:53:49;;;;;;;57.85;18.45;;;11.50;97.30;;;;;;4955776;28;20027;-74
2021/05/20 03:56:15;;;;;;;53.97;17.80;;;11.50;97.30;;;;;;4964551;28;20027;-74
2021/05/20 03:58:40;;;;;;;46.47;16.67;;;11.50;97.20;;;;;;4942160;29;20054;-74
2021/05/20 04:01:06;;;;;;;51.17;18.67;;;11.40;97.20;;;;;;4954836;29;20498;-74
2021/05/20 04:03:32;;;;;;;49.60;18.42;;;11.40;97.30;;;;;;4954780;29;20059;-74
2021/05/20 04:06:05;;;;;;;42.75;16.92;;;11.40;97.30;;;;;;4936660;29;20038;-74
2021/05/20 04:08:34;;;;;;;47.47;16.90;;;11.50;97.20;;;;;;4937386;29;20048;-74
2021/05/20 04:10:59;;;;;;;42.05;15.55;;;11.40;97.20;;;;;;4954565;28;20042;-76
2021/05/20 04:13:30;;;;;;;36.63;14.32;;;11.30;97.20;;;;;;4954379;29;20387;-75
2021/05/20 04:15:56;;;;;;;50.63;15.85;;;11.40;97.30;;;;;;4954051;29;20035;-74
2021/05/20 04:18:23;;;;;;;50.80;15.77;;;11.30;97.20;;;;;;4954316;29;20035;-74
2021/05/20 04:20:49;;;;;;;50.28;16.02;;;11.30;97.30;;;;;;4951771;29;20035;-79
2021/05/20 04:23:15;;;;;;;50.10;15.50;;;11.40;97.20;;;;;;4934946;29;20117;-80
2021/05/20 04:25:42;;;;;;;49.22;17.25;;;11.40;97.20;;;;;;4951775;29;20031;-80
2021/05/20 04:28:08;;;;;;;52.15;15.45;;;11.40;97.20;;;;;;4952614;29;20058;-81
2021/05/20 04:30:34;;;;;;;50.97;16.63;;;11.40;97.20;;;;;;4935158;29;20490;-79
2021/05/20 04:33:00;;;;;;;48.83;15.65;;;11.40;97.10;;;;;;4952168;29;20183;-81
2021/05/20 04:35:25;;;;;;;49.63;15.60;;;11.40;97.10;;;;;;4934814;29;20427;-80
2021/05/20 04:37:51;;;;;;;44.45;14.82;;;11.40;97.20;;;;;;4934343;29;20032;-81
2021/05/20 04:40:17;;;;;;;41.13;14.85;;;11.40;97.10;;;;;;4935270;29;20031;-80
2021/05/20 04:42:42;;;;;;;45.10;15.68;;;11.40;97.10;;;;;;4951564;29;20739;-81
2021/05/20 04:45:09;;;;;;;45.83;16.05;;;11.40;97.00;;;;;;4953039;29;20466;-74
2021/05/20 04:47:34;;;;;;;47.55;16.60;;;11.40;96.80;;;;;;4953757;29;20035;-74
2021/05/20 04:50:00;;;;;;;52.58;14.93;;;11.40;96.90;;;;;;4953276;29;20023;-74
2021/05/20 04:52:25;;;;;;;44.13;15.30;;;11.50;96.90;;;;;;4954191;29;20054;-73
2021/05/20 04:54:51;;;;;;;47.67;15.73;;;11.50;96.80;;;;;;4953429;29;20026;-74
2021/05/20 04:57:17;;;;;;;50.15;15.60;;;11.40;96.80;;;;;;4954040;29;20024;-74
2021/05/20 04:59:43;;;;;;;49.67;15.98;;;11.50;96.80;;;;;;4953534;29;20023;-74
2021/05/20 05:02:08;;;;;;;56.20;17.85;;;11.40;97.10;;;;;;4953874;29;20113;-74
2021/05/20 05:04:34;;;;;;;49.30;16.52;;;11.40;96.70;;;;;;4954003;29;20079;-73
2021/05/20 05:06:59;;;;;;;53.70;16.58;;;11.40;96.80;;;;;;4953342;29;20036;-73
2021/05/20 05:09:25;;;;;;;50.05;16.77;;;11.40;96.80;;;;;;4954072;29;20024;-74
2021/05/20 05:11:51;;;;;;;53.83;16.45;;;11.40;96.80;;;;;;4936019;29;20027;-75
2021/05/20 05:14:18;;;;;;;50.65;18.20;;;11.40;96.80;;;;;;4936837;29;20019;-75
2021/05/20 05:16:44;;;;;;;49.20;17.33;;;11.50;96.80;;;;;;4952850;29;20387;-75
2021/05/20 05:19:09;;;;;;;46.83;17.42;;;11.50;96.70;;;;;;4953941;29;20015;-74
2021/05/20 05:21:35;;;;;;;48.42;17.05;;;11.50;96.70;;;;;;4953640;29;20065;-74
2021/05/20 05:24:00;;;;;;;42.58;15.02;;;11.50;96.70;;;;;;4954871;28;20058;-74
2021/05/20 05:26:27;;;;;;;50.28;16.23;;;11.60;96.70;;;;;;4957833;29;20420;-74
2021/05/20 05:28:53;;;;;;;38.25;15.02;;;11.60;96.90;;;;;;4957363;29;20058;-75
2021/05/20 05:31:23;;;;;;;51.80;17.38;;;11.70;96.60;;;;;;4957624;29;20074;-74
2021/05/20 05:33:49;;;;;;;45.53;17.30;;;11.60;96.60;;;;;;4939878;29;20026;-75
2021/05/20 05:36:14;;;;;;;50.92;17.77;;;11.70;96.70;;;;;;4957627;29;20023;-74
2021/05/20 05:38:40;;;;;;;44.40;16.65;;;11.60;96.70;;;;;;4957253;29;20114;-74
2021/05/20 05:41:05;;;;;;;43.78;16.63;;;11.70;96.60;;;;;;4957221;29;20028;-74
2021/05/20 05:43:31;;;;;;;47.60;17.08;;;11.70;96.60;;;;;;4957227;29;20026;-75
2021/05/20 05:45:57;;;;;;;48.45;17.35;;;11.70;96.60;;;;;;4956673;29;20027;-74
2021/05/20 05:48:22;;;;;;;50.47;18.17;;;11.70;96.60;;;;;;4940228;29;20502;-74
2021/05/20 05:50:50;;;;;;;47.42;17.45;;;11.70;96.50;;;;;;4939237;29;20035;-74
2021/05/20 05:53:16;;;;;;;50.88;16.70;;;11.70;96.50;;;;;;4940434;29;20099;-74
2021/05/20 05:55:42;;;;;;;43.00;15.75;;;11.70;96.60;;;;;;4957496;29;20034;-74
2021/05/20 05:58:08;;;;;;;52.88;17.08;;;11.70;96.50;;;;;;4957410;29;20115;-74
2021/05/20 06:00:34;;;;;;;54.83;16.95;;;11.70;96.50;;;;;;4939950;29;20114;-73
2021/05/20 06:03:00;;;;;;;46.75;16.50;;;11.70;96.40;;;;;;4956532;29;20054;-74
2021/05/20 06:05:25;;;;;;;48.25;16.40;;;11.70;96.40;;;;;;4957112;29;20019;-74
2021/05/20 06:07:51;;;;;;;47.50;15.65;;;11.70;96.40;;;;;;4938826;29;20083;-74
2021/05/20 06:10:17;;;;;;;48.72;14.57;;;11.80;96.40;;;;;;4956756;29;20057;-74
2021/05/20 06:12:42;;;;;;;50.75;16.45;;;11.70;96.20;;;;;;4939738;29;20110;-74
2021/05/20 06:15:09;;;;;;;44.85;15.27;;;11.70;96.00;;;;;;4939093;29;20042;-75
2021/05/20 06:17:38;;;;;;;52.00;15.65;;;11.70;96.20;;;;;;4956806;29;20023;-74
2021/05/20 06:20:05;;;;;;;42.40;14.77;;;11.70;96.20;;;;;;4955912;29;20045;-74
2021/05/20 06:22:31;;;;;;;42.60;15.45;;;11.80;96.20;;;;;;4939326;29;20127;-74
2021/05/20 06:24:57;;;;;;;44.70;16.13;;;11.90;96.00;;;;;;4956102;29;20070;-74
2021/05/20 06:27:26;;;;;;;42.80;16.20;;;11.90;96.00;;;;;;4956586;29;20542;-74
2021/05/20 06:29:55;;;;;;;45.72;15.98;;;11.90;95.90;;;;;;4938543;29;20412;-74
2021/05/20 06:32:21;;;;;;;40.80;14.48;;;11.90;95.90;;;;;;4956475;29;20023;-75
2021/05/20 06:34:46;;;;;;;46.35;15.05;;;12.00;96.00;;;;;;4938600;29;20111;-75
2021/05/20 06:37:12;;;;;;;49.80;16.50;;;12.00;95.90;;;;;;4956037;29;20035;-74
2021/05/20 06:39:39;;;;;;;49.25;17.83;;;12.10;95.70;;;;;;4938111;29;20031;-74
2021/05/20 06:42:08;;;;;;;41.05;16.77;;;12.10;95.80;;;;;;4938484;29;20074;-74
2021/05/20 06:44:34;;;;;;;43.92;18.42;;;12.20;95.60;;;;;;4956524;29;20027;-74
2021/05/20 06:46:59;;;;;;;43.10;16.50;;;12.20;95.60;;;;;;4938407;29;20115;-74
2021/05/20 06:49:25;;;;;;;42.05;17.58;;;12.10;95.60;;;;;;4939005;29;20117;-74
2021/05/20 06:51:51;;;;;;;51.10;18.73;;;12.20;95.60;;;;;;4955662;29;20122;-74
2021/05/20 06:54:16;;;;;;;56.40;17.45;;;12.20;95.50;;;;;;4955740;29;20484;-74
2021/05/20 06:56:47;;;;;;;47.22;17.13;;;12.30;95.50;;;;;;4938688;29;20019;-74
2021/05/20 07:01:56;;;;;;;44.38;14.95;;;12.40;95.40;;;;;;4955444;29;20082;-73
2021/05/20 07:04:22;;;;;;;45.85;16.20;;;12.40;95.20;;;;;;4938777;29;20114;-74
2021/05/20 07:06:48;;;;;;;57.63;18.63;;;12.30;95.10;;;;;;4955363;29;20054;-73
2021/05/20 07:09:14;;;;;;;44.88;16.55;;;12.30;95.30;;;;;;4938612;29;20019;-74
2021/05/20 07:11:40;;;;;;;45.67;15.85;;;12.40;95.20;;;;;;4955839;29;20024;-74
2021/05/20 07:14:06;;;;;;;46.03;15.45;;;12.50;95.20;;;;;;4955120;29;20046;-74
2021/05/20 07:16:33;;;;;;;43.03;16.48;;;12.50;95.10;;;;;;4955473;29;20122;-74
2021/05/20 07:18:59;;;;;;;44.92;18.27;;;12.60;95.30;;;;;;4954952;29;20030;-74
2021/05/20 07:21:25;;;;;;;51.63;20.08;;;12.70;94.80;;;;;;4955464;29;20026;-74
2021/05/20 07:23:51;;;;;;;55.83;21.10;;;12.70;94.80;;;;;;4955351;29;20023;-74
2021/05/20 07:26:17;;;;;;;57.63;23.05;;;12.80;94.80;;;;;;4955607;29;20294;-74
2021/05/20 07:28:42;;;;;;;50.67;20.20;;;12.80;94.60;;;;;;4955587;29;20122;-74
2021/05/20 07:31:08;;;;;;;62.13;22.65;;;12.80;94.60;;;;;;4954920;29;20062;-74
2021/05/20 07:33:34;;;;;;;73.40;25.90;;;12.90;94.50;;;;;;4955286;29;20023;-74
2021/05/20 07:36:00;;;;;;;69.30;25.67;;;12.90;94.40;;;;;;4954688;29;20023;-74
2021/05/20 07:38:26;;;;;;;68.20;25.17;;;12.90;94.40;;;;;;4955303;29;20038;-74
2021/05/20 07:40:52;;;;;;;64.57;23.75;;;12.90;94.40;;;;;;4954548;29;20019;-74
2021/05/20 07:43:18;;;;;;;68.97;24.20;;;13.00;94.50;;;;;;4955114;29;20046;-74
2021/05/20 07:45:43;;;;;;;86.22;29.50;;;13.00;94.40;;;;;;4954539;28;20110;-74
2021/05/20 07:48:09;;;;;;;74.63;27.17;;;13.00;94.30;;;;;;4936921;29;20071;-74
2021/05/20 07:50:35;;;;;;;74.07;26.63;;;13.00;94.50;;;;;;4954851;29;20027;-74
2021/05/20 07:53:00;;;;;;;68.38;26.05;;;13.00;94.40;;;;;;4954098;29;20081;-74
2021/05/20 07:55:26;;;;;;;86.40;30.30;;;13.10;94.30;;;;;;4937250;29;20147;-75
2021/05/20 07:57:53;;;;;;;72.05;27.08;;;13.20;94.20;;;;;;4954461;29;20063;-75
2021/05/20 08:00:20;;;;;;;67.10;25.85;;;13.20;94.20;;;;;;4954809;29;20115;-73
2021/05/20 08:05:33;;;;;;;76.55;28.65;;;13.20;93.90;;;;;;4954260;29;20031;-73
2021/05/20 08:08:17;;;;;;;67.72;25.60;;;13.30;93.90;;;;;;4954195;29;20078;-75
2021/05/20 08:10:55;;;;;;;66.80;25.65;;;13.30;94.00;;;;;;4954759;29;20050;-74
2021/05/20 08:13:21;;;;;;;62.65;25.38;;;13.40;93.70;;;;;;4937415;29;20416;-73
2021/05/20 08:15:47;;;;;;;73.07;27.55;;;13.40;93.60;;;;;;4954657;29;20027;-75
2021/05/20 08:18:14;;;;;;;64.55;23.10;;;13.40;93.60;;;;;;4953834;29;20085;-74
2021/05/20 08:20:40;;;;;;;65.18;25.55;;;13.40;93.70;;;;;;4954515;29;20019;-75
2021/05/20 08:23:05;;;;;;;65.60;23.67;;;13.40;93.50;;;;;;4937007;29;20026;-74
2021/05/20 08:25:31;;;;;;;54.13;21.17;;;13.40;93.60;;;;;;4954813;29;20027;-74
2021/05/20 08:27:57;;;;;;;60.65;22.95;;;13.40;93.60;;;;;;4953742;29;20345;-74
2021/05/20 08:30:23;;;;;;;50.28;22.02;;;13.50;93.30;;;;;;4954514;29;20023;-74
2021/05/20 08:32:49;;;;;;;57.47;21.77;;;13.40;93.30;;;;;;4954704;29;20340;-75
2021/05/20 08:35:15;;;;;;;55.50;23.10;;;13.40;93.40;;;;;;4953834;29;20038;-73
2021/05/20 08:37:42;;;;;;;53.33;21.95;;;13.40;93.20;;;;;;4937125;29;20031;-75
2021/05/20 08:40:09;;;;;;;61.10;23.27;;;13.50;93.30;;;;;;4953496;29;20027;-74
2021/05/20 08:42:35;;;;;;;56.95;22.75;;;13.50;93.20;;;;;;4954936;29;20025;-74
2021/05/20 08:45:31;;;;;;;53.75;24.33;;;13.60;93.10;;;;;;4953854;29;20102;-74
2021/05/20 08:47:58;;;;;;;62.20;25.50;;;13.70;92.80;;;;;;4952462;29;20031;-77
2021/05/20 08:50:26;;;;;;;55.50;23.38;;;13.70;92.80;;;;;;4936929;29;20071;-73
2021/05/20 08:52:52;;;;;;;52.65;21.35;;;13.80;92.70;;;;;;4954303;29;20069;-75
2021/05/20 08:55:27;;;;;;;50.72;22.38;;;13.90;92.70;;;;;;4953553;29;20023;-74
2021/05/20 08:57:55;;;;;;;54.70;22.88;;;14.00;92.50;;;;;;4953456;29;20066;-75
2021/05/20 09:00:24;;;;;;;42.40;19.58;;;14.00;92.30;;;;;;4953883;29;20015;-75
2021/05/20 09:02:50;;;;;;;43.40;20.25;;;14.10;92.00;;;;;;4936861;29;20027;-74
2021/05/20 09:05:18;;;;;;;44.30;19.05;;;14.10;91.80;;;;;;4936087;29;20042;-75
2021/05/20 09:07:55;;;;;;;35.65;18.02;;;14.10;92.00;;;;;;4936725;29;20159;-74
2021/05/20 09:10:23;;;;;;;43.33;18.10;;;14.10;91.90;;;;;;4953253;29;20016;-75
2021/05/20 09:13:00;;;;;;;39.47;17.60;;;14.20;91.90;;;;;;4953780;29;20065;-74
2021/05/20 09:15:32;;;;;;;38.10;18.80;;;14.30;91.80;;;;;;4954380;29;20440;-74
2021/05/20 09:18:10;;;;;;;41.35;20.00;;;14.30;91.70;;;;;;4953128;29;20420;-75
2021/05/20 09:20:38;;;;;;;37.33;19.52;;;14.30;91.50;;;;;;4953912;29;20127;-75
2021/05/20 09:23:29;;;;;;;37.63;19.60;;;14.30;91.50;;;;;;4953396;29;20106;-75
2021/05/20 09:26:09;;;;;;;42.10;20.07;;;14.30;91.00;;;;;;4953952;29;20015;-75
2021/05/20 09:28:46;;;;;;;36.72;18.63;;;14.40;91.10;;;;;;4953776;29;20452;-74
2021/05/20 09:31:14;;;;;;;36.90;17.73;;;14.50;90.80;;;;;;4952825;29;20020;-74
2021/05/20 09:33:54;;;;;;;37.97;18.95;;;14.60;90.60;;;;;;4953866;29;20455;-74
2021/05/20 09:36:24;;;;;;;35.60;18.40;;;14.70;90.40;;;;;;4953146;29;20471;-74
2021/05/20 09:39:07;;;;;;;35.10;18.25;;;14.70;90.00;;;;;;4953725;29;20115;-74
2021/05/20 09:41:33;;;;;;;37.83;19.10;;;14.80;89.60;;;;;;4953513;29;20020;-74
2021/05/20 09:43:58;;;;;;;37.55;18.80;;;14.80;89.60;;;;;;4953736;29;20079;-74
2021/05/20 09:46:27;;;;;;;39.08;19.20;;;14.80;89.50;;;;;;4953025;29;20030;-75
2021/05/20 09:48:58;;;;;;;35.42;18.08;;;14.80;89.30;;;;;;4936293;29;20019;-74
2021/05/20 09:51:29;;;;;;;35.20;18.60;;;14.80;89.40;;;;;;4952841;29;20044;-74
2021/05/20 09:53:56;;;;;;;33.95;17.17;;;14.80;88.90;;;;;;4936487;29;20404;-74
2021/05/20 09:56:40;;;;;;;32.25;17.20;;;14.90;88.70;;;;;;4952917;29;20031;-74
2021/05/20 09:59:07;;;;;;;29.98;15.73;;;15.00;88.40;;;;;;4952924;29;20027;-75
2021/05/20 10:01:34;;;;;;;28.05;14.40;;;15.00;87.50;;;;;;4953360;29;20026;-76
2021/05/20 10:04:00;;;;;;;24.58;14.50;;;15.10;87.50;;;;;;4936470;29;20345;-74
2021/05/20 10:06:39;;;;;;;21.42;12.32;;;15.00;87.50;;;;;;4935634;29;20520;-74
2021/05/20 10:09:07;;;;;;;24.27;13.25;;;15.00;87.30;;;;;;4953084;28;20027;-74
2021/05/20 10:11:33;;;;;;;25.08;13.55;;;14.90;88.10;;;;;;4939771;29;20355;-74
2021/05/20 10:13:59;;;;;;;22.33;13.07;;;14.90;88.40;;;;;;4956996;29;20039;-75
2021/05/20 10:16:29;;;;;;;24.70;14.18;;;14.90;88.60;;;;;;4956272;29;20046;-74
2021/05/20 10:18:55;;;;;;;26.38;14.63;;;14.80;88.30;;;;;;4939448;29;20027;-74
2021/05/20 10:21:28;;;;;;;26.73;15.27;;;14.80;87.90;;;;;;4956178;29;20455;-75
2021/05/20 10:23:54;;;;;;;23.08;13.90;;;14.80;86.60;;;;;;4956393;29;20035;-74
2021/05/20 10:26:20;;;;;;;21.73;13.20;;;14.70;87.10;;;;;;4955720;29;20371;-74
2021/05/20 10:28:46;;;;;;;21.48;12.98;;;14.70;87.00;;;;;;4939396;29;20155;-74
2021/05/20 10:31:13;;;;;;;24.48;13.55;;;14.80;87.10;;;;;;4955932;29;20352;-74
2021/05/20 10:33:40;;;;;;;21.88;12.90;;;15.00;87.00;;;;;;4956316;29;20046;-74
2021/05/20 10:36:06;;;;;;;21.02;13.18;;;15.10;85.20;;;;;;4955829;29;20098;-74
2021/05/20 10:38:32;;;;;;;21.05;12.18;;;15.10;83.90;;;;;;4939110;29;20031;-74
2021/05/20 10:41:09;;;;;;;25.73;13.07;;;15.10;84.70;;;;;;4956230;29;20023;-74
2021/05/20 10:43:35;;;;;;;22.35;12.25;;;15.30;84.70;;;;;;4956449;29;20027;-74
2021/05/20 10:46:06;;;;;;;20.50;12.23;;;15.30;84.90;;;;;;4956208;29;20063;-75
2021/05/20 10:48:34;;;;;;;22.15;13.00;;;15.40;84.90;;;;;;4956474;29;20031;-74
2021/05/20 10:51:05;;;;;;;20.95;12.98;;;15.30;84.60;;;;;;4956008;29;20030;-75
2021/05/20 10:53:52;;;;;;;21.27;12.75;;;15.40;84.90;;;;;;4956309;29;20102;-75
2021/05/20 10:56:26;;;;;;;22.65;12.65;;;15.40;84.50;;;;;;4955507;29;20452;-74
2021/05/20 10:58:52;;;;;;;19.80;11.82;;;15.50;84.20;;;;;;4955904;29;20078;-75
2021/05/20 11:01:20;;;;;;;23.63;13.77;;;15.60;84.00;;;;;;4955021;29;20383;-74
2021/05/20 11:03:46;;;;;;;21.65;12.48;;;15.60;83.20;;;;;;4956025;29;20023;-75
2021/05/20 11:06:15;;;;;;;24.02;14.68;;;15.60;83.40;;;;;;4938093;29;20023;-74
2021/05/20 11:08:47;;;;;;;23.13;14.02;;;15.60;83.40;;;;;;4955730;29;20019;-74
2021/05/20 11:11:44;;;;;;;24.27;14.18;;;15.80;82.90;;;;;;4937973;29;20033;-73
2021/05/20 11:14:13;;;;;;;26.30;14.65;;;16.00;81.60;;;;;;4954971;29;20113;-75
2021/05/20 11:16:46;;;;;;;27.60;15.00;;;16.10;80.90;;;;;;4955866;29;20030;-75
2021/05/20 11:19:28;;;;;;;26.08;14.90;;;16.20;81.30;;;;;;4955158;29;20055;-75
2021/05/20 11:22:03;;;;;;;27.58;14.02;;;16.40;81.10;;;;;;4937642;29;20030;-74
2021/05/20 11:24:30;;;;;;;27.13;15.38;;;16.50;81.00;;;;;;4954876;29;20375;-75
2021/05/20 11:27:01;;;;;;;25.20;14.50;;;16.50;80.10;;;;;;4955665;29;20510;-75
2021/05/20 11:29:28;;;;;;;26.80;15.68;;;16.60;79.40;;;;;;4955072;29;20025;-74
2021/05/20 11:35:38;;;;;;;27.63;15.05;;;16.80;78.50;;;;;;4955532;29;20038;-75
2021/05/20 11:37:38;;;;;;;25.85;14.00;;;17.00;78.50;;;;;;4944707;29;20039;-74
2021/05/20 11:40:06;;;;;;;31.23;18.00;;;17.10;78.60;;;;;;4955032;29;20379;-74
2021/05/20 11:42:33;;;;;;;29.52;17.15;;;17.10;78.80;;;;;;4954430;29;20048;-74
2021/05/20 11:45:04;;;;;;;28.80;16.02;;;17.10;78.50;;;;;;4937597;29;20074;-74
2021/05/20 11:47:30;;;;;;;;;;;17.20;77.90;;;;;;4954693;29;20035;-75
2021/05/20 11:49:57;;;;;;;31.33;16.92;;;17.40;78.20;;;;;;4954984;29;19930;-74
2021/05/20 11:52:25;;;;;;;28.65;14.98;;;17.50;77.40;;;;;;4953842;29;20039;-75
2021/05/20 11:54:53;;;;;;;25.27;14.63;;;17.70;77.10;;;;;;4954870;29;20062;-74
2021/05/20 11:57:22;;;;;;;30.60;17.58;;;17.80;73.30;;;;;;4954107;29;20033;-75
2021/05/20 11:59:58;;;;;;;26.92;15.15;;;17.90;72.00;;;;;;4954938;29;20400;-75
2021/05/20 12:02:28;;;;;;;27.58;15.52;;;18.00;72.30;;;;;;4954239;29;20019;-74
2021/05/20 12:04:58;;;;;;;32.97;16.83;;;18.10;71.80;;;;;;4954667;29;20015;-75
2021/05/20 12:07:26;;;;;;;28.38;14.95;;;18.20;72.30;;;;;;4954452;29;20035;-74
2021/05/20 12:09:53;;;;;;;28.13;16.05;;;18.30;72.40;;;;;;4954745;29;20030;-74
2021/05/20 12:12:20;;;;;;;26.23;15.35;;;18.30;72.60;;;;;;4936695;29;20367;-75
2021/05/20 12:14:46;;;;;;;31.80;18.20;;;18.30;72.90;;;;;;4954552;29;20015;-74
2021/05/20 12:17:13;;;;;;;28.85;17.23;;;18.40;71.80;;;;;;4936561;29;20026;-74
2021/05/20 12:19:48;;;;;;;27.00;16.00;;;18.40;70.60;;;;;;4937433;29;20082;-73
2021/05/20 12:22:25;;;;;;;28.52;15.93;;;18.50;70.70;;;;;;4936666;29;20047;-75
2021/05/20 12:25:04;;;;;;;28.55;16.42;;;18.60;71.10;;;;;;4937220;29;20031;-74
2021/05/20 12:27:35;;;;;;;29.70;16.67;;;18.60;70.10;;;;;;4953853;29;20530;-75
2021/05/20 12:30:06;;;;;;;26.88;15.95;;;18.60;68.90;;;;;;4937236;29;20027;-74
2021/05/20 12:32:38;;;;;;;25.10;14.23;;;18.50;69.10;;;;;;4953709;28;20397;-75
2021/05/20 12:35:13;;;;;;;24.65;15.38;;;18.40;69.50;;;;;;4954162;29;20027;-75
2021/05/20 12:37:47;;;;;;;25.95;15.05;;;18.40;68.30;;;;;;4954289;29;20114;-74
2021/05/20 12:40:19;;;;;;;25.95;15.60;;;18.20;68.90;;;;;;4954388;29;20039;-75